createdAt,value
2019-05-17T00:03:24.211Z,10.85
2019-05-17T00:08:33.912Z,10.88
2019-05-17T00:13:32.794Z,10.87
2019-05-17T00:18:37.043Z,10.85
2019-05-17T00:23:40.537Z,10.85
2019-05-17T00:28:43.958Z,10.86
2019-05-17T00:33:47.400Z,10.87
2019-05-17T00:38:51.580Z,10.87
2019-05-17T00:43:56.953Z,10.88
2019-05-17T00:49:00.524Z,10.78
2019-05-17T00:54:03.940Z,10.77
2019-05-17T00:59:07.572Z,10.69
2019-05-17T01:04:11.061Z,10.69
2019-05-17T01:09:16.806Z,10.70
2019-05-17T01:14:19.630Z,10.60
2019-05-17T01:19:23.057Z,10.49
2019-05-17T01:24:27.447Z,10.45
2019-05-17T01:29:30.899Z,10.54
2019-05-17T01:34:34.426Z,10.57
2019-05-17T01:39:37.911Z,10.63
2019-05-17T01:44:41.342Z,10.68
2019-05-17T01:49:46.807Z,10.66
2019-05-17T01:54:49.934Z,10.67
2019-05-17T01:59:53.437Z,10.68
2019-05-17T02:04:57.035Z,10.72
2019-05-17T02:10:00.485Z,10.72
2019-05-17T02:15:10.038Z,10.71
2019-05-17T02:20:14.104Z,10.65
2019-05-17T02:25:19.152Z,10.65
2019-05-17T02:30:23.482Z,10.69
2019-05-17T02:35:27.156Z,10.68
2019-05-17T02:40:33.543Z,10.66
2019-05-17T02:45:35.804Z,10.63
2019-05-17T02:50:39.154Z,10.60
2019-05-17T02:55:43.513Z,10.58
2019-05-17T03:00:47.298Z,10.55
2019-05-17T03:05:53.645Z,10.58
2019-05-17T03:10:55.983Z,10.63
2019-05-17T03:15:59.400Z,10.66
2019-05-17T03:21:04.095Z,10.65
2019-05-17T03:26:07.712Z,10.62
2019-05-17T03:31:16.593Z,10.60
2019-05-17T03:36:17.831Z,10.59
2019-05-17T03:41:27.894Z,10.60
2019-05-17T03:46:26.974Z,10.61
2019-05-17T03:51:33.348Z,10.61
2019-05-17T03:56:35.778Z,10.64
2019-05-17T04:01:39.203Z,10.61
2019-05-17T04:06:43.596Z,10.62
2019-05-17T04:11:47.360Z,10.61
2019-05-17T04:16:53.592Z,10.59
2019-05-17T04:21:55.943Z,10.62
2019-05-17T04:27:03.206Z,10.63
2019-05-17T04:32:04.661Z,10.64
2019-05-17T04:37:08.095Z,10.63
2019-05-17T04:42:13.630Z,10.67
2019-05-17T04:47:16.775Z,10.72
2019-05-17T04:52:22.801Z,10.73
2019-05-17T04:57:25.423Z,10.76
2019-05-17T05:02:28.869Z,10.77
2019-05-17T05:07:33.557Z,10.76
2019-05-17T05:12:37.140Z,10.73
2019-05-17T05:17:42.550Z,10.78
2019-05-17T05:22:45.710Z,10.83
2019-05-17T05:27:49.150Z,10.84
2019-05-17T05:32:52.584Z,10.86
2019-05-17T05:37:56.498Z,10.98
2019-05-17T05:43:02.137Z,10.99
2019-05-17T05:48:05.160Z,11.00
2019-05-17T05:53:08.599Z,11.04
2019-05-17T05:58:12.542Z,11.06
2019-05-17T06:03:18.893Z,11.10
2019-05-17T06:08:22.898Z,11.18
2019-05-17T06:13:26.434Z,11.24
2019-05-17T06:18:31.851Z,11.29
2019-05-17T06:23:34.999Z,11.37
2019-05-17T06:28:38.408Z,11.46
2019-05-17T06:33:42.292Z,11.55
2019-05-17T06:38:46.760Z,11.45
2019-05-17T06:43:52.357Z,11.48
2019-05-17T06:48:55.412Z,11.63
2019-05-17T06:53:58.854Z,11.77
2019-05-17T06:59:02.274Z,11.69
2019-05-17T07:04:05.698Z,11.82
2019-05-17T07:09:10.070Z,11.88
2019-05-17T07:14:13.725Z,11.80
2019-05-17T07:19:19.644Z,11.88
2019-05-17T07:24:22.320Z,11.78
2019-05-17T07:29:25.764Z,11.91
2019-05-17T07:34:30.849Z,12.03
2019-05-17T07:39:34.407Z,12.11
2019-05-17T07:44:40.144Z,12.08
2019-05-17T07:49:42.995Z,12.10
2019-05-17T07:54:46.451Z,12.43
2019-05-17T07:59:50.788Z,12.59
2019-05-17T08:04:54.273Z,12.60
2019-05-17T08:09:59.932Z,12.64
2019-05-17T08:15:02.958Z,12.70
2019-05-17T08:20:10.047Z,12.86
2019-05-17T08:25:13.170Z,12.85
2019-05-17T08:30:20.096Z,12.65
2019-05-17T08:35:23.061Z,12.51
2019-05-17T08:40:26.501Z,12.47
2019-05-17T08:45:29.939Z,12.65
2019-05-17T08:55:54.713Z,12.65
2019-05-17T09:01:00.347Z,12.54
2019-05-17T09:06:03.314Z,12.45
2019-05-17T09:11:06.735Z,12.42
2019-05-17T09:16:10.747Z,12.58
2019-05-17T09:21:14.416Z,12.63
2019-05-17T09:26:19.847Z,12.43
2019-05-17T09:31:23.009Z,12.55
2019-05-17T09:36:26.419Z,12.43
2019-05-17T09:41:29.864Z,12.57
2019-05-17T09:46:34.058Z,12.60
2019-05-17T09:51:39.479Z,12.49
2019-05-17T09:56:42.562Z,12.60
2019-05-17T10:01:45.986Z,12.83
2019-05-17T10:06:51.316Z,13.01
2019-05-17T10:11:54.632Z,12.83
2019-05-17T10:17:00.167Z,13.00
2019-05-17T10:22:03.207Z,13.10
2019-05-17T10:27:06.626Z,13.08
2019-05-17T10:32:10.592Z,13.00
2019-05-17T10:37:14.175Z,13.21
2019-05-17T10:42:17.566Z,13.04
2019-05-17T10:47:20.992Z,12.88
2019-05-17T10:52:24.438Z,12.93
2019-05-17T10:57:30.099Z,12.84
2019-05-17T11:02:33.084Z,12.75
2019-05-17T11:07:36.524Z,12.86
2019-05-17T11:12:40.025Z,12.93
2019-05-17T11:17:43.504Z,12.94
2019-05-17T11:22:46.926Z,13.09
2019-05-17T11:27:50.360Z,13.93
2019-05-17T11:32:53.809Z,15.06
2019-05-17T11:37:57.285Z,15.79
2019-05-17T11:43:00.704Z,16.71
2019-05-17T11:48:04.265Z,17.53
2019-05-17T11:53:07.704Z,16.99
2019-05-17T11:58:11.118Z,16.78
2019-05-17T12:03:15.569Z,16.96
2019-05-17T12:08:19.178Z,16.90
2019-05-17T12:13:22.574Z,17.42
2019-05-17T12:18:26.058Z,17.32
2019-05-17T12:23:29.480Z,18.02
2019-05-17T12:28:32.901Z,18.14
2019-05-17T12:33:36.339Z,17.81
2019-05-17T12:38:39.809Z,17.41
2019-05-17T12:43:43.221Z,17.45
2019-05-17T12:48:46.646Z,17.15
2019-05-17T12:53:50.089Z,17.64
2019-05-17T12:58:53.492Z,18.19
2019-05-17T13:03:56.907Z,19.57
2019-05-17T13:09:00.382Z,20.26
2019-05-17T13:14:04.110Z,20.13
2019-05-17T13:19:07.535Z,20.26
2019-05-17T13:24:11.968Z,20.59
2019-05-17T13:29:15.480Z,19.73
2019-05-17T13:34:18.912Z,19.53
2019-05-17T13:39:22.338Z,20.76
2019-05-17T13:44:25.758Z,20.90
2019-05-17T13:49:29.203Z,20.41
2019-05-17T13:54:32.627Z,20.15
2019-05-17T13:59:36.105Z,19.70
2019-05-17T14:04:39.575Z,19.62
2019-05-17T14:09:43.044Z,19.75
2019-05-17T14:14:46.487Z,19.26
2019-05-17T14:19:49.940Z,19.37
2019-05-17T14:24:53.355Z,18.83
2019-05-17T14:29:56.802Z,18.14
2019-05-17T14:35:00.234Z,18.34
2019-05-17T14:40:05.313Z,18.17
2019-05-17T14:45:09.893Z,17.98
2019-05-17T14:50:13.449Z,17.92
2019-05-17T14:55:16.950Z,17.86
2019-05-17T15:00:21.447Z,17.72
2019-05-17T15:05:24.895Z,17.75
2019-05-17T15:10:28.328Z,18.20
2019-05-17T15:15:31.820Z,17.83
2019-05-17T15:20:35.283Z,17.71
2019-05-17T15:25:39.112Z,17.91
2019-05-17T15:30:42.550Z,18.73
2019-05-17T15:35:45.969Z,18.68
2019-05-17T15:40:49.503Z,18.91
2019-05-17T15:45:52.930Z,18.29
2019-05-17T15:50:56.368Z,18.22
2019-05-17T15:55:59.800Z,18.07
2019-05-17T16:01:03.288Z,18.16
2019-05-17T16:06:06.740Z,17.91
2019-05-17T16:11:10.152Z,18.03
2019-05-17T16:16:13.592Z,18.45
2019-05-17T16:21:17.052Z,18.41
2019-05-17T16:26:20.559Z,18.29
2019-05-17T16:31:24.626Z,17.99
2019-05-17T16:36:27.988Z,17.88
2019-05-17T16:41:31.414Z,18.00
2019-05-17T16:46:34.816Z,18.02
2019-05-17T16:51:38.238Z,18.05
2019-05-17T16:56:41.698Z,17.77
2019-05-17T17:01:45.147Z,17.61
2019-05-17T17:06:48.558Z,17.69
2019-05-17T17:11:51.969Z,17.51
2019-05-17T17:16:55.450Z,17.45
2019-05-17T17:21:58.939Z,17.35
2019-05-17T17:27:02.386Z,17.36
2019-05-17T17:32:19.424Z,17.11
2019-05-17T17:37:10.977Z,17.02
2019-05-17T17:42:14.386Z,16.99
2019-05-17T17:47:17.816Z,17.05
2019-05-17T17:52:21.228Z,16.99
2019-05-17T17:57:24.669Z,16.97
2019-05-17T18:02:28.105Z,16.83
2019-05-17T18:07:31.646Z,16.86
2019-05-17T18:12:35.060Z,16.84
2019-05-17T18:17:39.628Z,16.81
2019-05-17T18:22:43.905Z,16.64
2019-05-17T18:27:47.317Z,16.63
2019-05-17T18:32:50.809Z,16.57
2019-05-17T18:37:54.966Z,16.47
2019-05-17T18:42:58.372Z,16.38
2019-05-17T18:48:01.943Z,16.28
2019-05-17T18:53:06.577Z,16.20
2019-05-17T18:58:10.644Z,16.05
2019-05-17T19:03:14.567Z,16.02
2019-05-17T19:08:18.075Z,15.94
2019-05-17T19:13:21.537Z,15.85
2019-05-17T19:18:24.972Z,15.75
2019-05-17T19:23:28.409Z,15.66
2019-05-17T19:28:31.839Z,15.54
2019-05-17T19:33:35.250Z,15.40
2019-05-17T19:38:38.662Z,15.37
2019-05-17T19:43:42.083Z,15.27
2019-05-17T19:48:45.507Z,15.19
2019-05-17T19:53:48.942Z,15.05
2019-05-17T19:58:52.363Z,14.96
2019-05-17T20:03:55.802Z,14.89
2019-05-17T20:08:59.220Z,14.82
2019-05-17T20:14:02.645Z,14.78
2019-05-17T20:19:06.066Z,14.73
2019-05-17T20:24:09.487Z,14.61
2019-05-17T20:29:12.949Z,14.58
2019-05-17T20:34:16.367Z,14.51
2019-05-17T20:39:19.795Z,14.44
2019-05-17T20:44:23.214Z,14.42
2019-05-17T20:49:26.655Z,14.40
2019-05-17T20:54:30.066Z,14.38
2019-05-17T20:59:33.488Z,14.30
2019-05-17T21:04:36.915Z,14.28
2019-05-17T21:09:40.348Z,14.21
2019-05-17T21:14:43.756Z,14.04
2019-05-17T21:19:47.191Z,13.89
2019-05-17T21:24:50.622Z,13.68
2019-05-17T21:29:54.058Z,13.63
2019-05-17T21:34:57.481Z,13.53
2019-05-17T21:40:00.907Z,13.35
2019-05-17T21:45:10.275Z,13.30
2019-05-17T21:50:14.307Z,13.19
2019-05-17T21:55:17.756Z,12.96
2019-05-17T22:00:51.874Z,12.70
2019-05-17T22:05:55.317Z,12.69
2019-05-17T22:10:58.745Z,12.68
2019-05-17T22:16:02.185Z,12.60
2019-05-17T22:21:05.660Z,12.56
2019-05-17T22:26:09.153Z,12.49
2019-05-17T22:31:12.583Z,12.47
2019-05-17T22:36:16.038Z,12.43
2019-05-17T22:41:19.535Z,12.32
2019-05-17T22:46:35.715Z,12.30
2019-05-17T22:51:28.131Z,12.28
2019-05-17T22:56:31.568Z,12.10
2019-05-17T23:01:34.995Z,12.10
2019-05-17T23:06:38.478Z,11.99
2019-05-17T23:11:41.916Z,11.90
2019-05-17T23:16:51.533Z,11.77
2019-05-17T23:21:50.602Z,11.72
2019-05-17T23:26:54.098Z,11.74
2019-05-17T23:31:57.480Z,11.63
2019-05-17T23:37:00.901Z,11.46
2019-05-17T23:42:04.331Z,11.41
2019-05-17T23:47:07.760Z,11.36
2019-05-17T23:52:11.200Z,11.43
2019-05-17T23:57:14.624Z,11.48
